Time;durP1;ratioP1;P1;durP2;ratioP2;P2;SDS_P1;SDS_P2;PMS_P1;PMS_P2;Temp;Humidity;BMP_temperature;BMP_pressure;BME280_temperature;BME280_humidity;BME280_pressure;Samples;Min_cycle;Max_cycle;Signal;HPM_P1;HPM_P2
2022/04/06 00:01:41;;;;;;;8.80;5.55;;;;;;;;;;5093528;28;20085;-72
2022/04/06 00:04:06;;;;;;;9.90;5.80;;;;;;;;;;5093135;28;20039;-73
2022/04/06 00:06:32;;;;;;;11.68;6.20;;;;;;;;;;5093598;28;20470;-71
2022/04/06 00:08:57;;;;;;;10.05;6.25;;;;;;;;;;5092987;28;20273;-71
2022/04/06 00:11:23;;;;;;;11.15;5.72;;;;;;;;;;5093093;28;20085;-71
2022/04/06 00:13:49;;;;;;;12.50;6.10;;;;;;;;;;5093308;28;20026;-71
2022/04/06 00:16:15;;;;;;;9.68;5.65;;;;;;;;;;5093355;28;20239;-76
2022/04/06 00:18:41;;;;;;;10.48;5.80;;;;;;;;;;5091660;28;20501;-73
2022/04/06 00:21:07;;;;;;;12.52;5.95;;;;;;;;;;5093285;28;20300;-75
2022/04/06 00:23:32;;;;;;;10.35;6.00;;;;;;;;;;5092742;28;20077;-72
2022/04/06 00:25:58;;;;;;;10.73;5.30;;;;;;;;;;5092516;28;20039;-72
2022/04/06 00:28:23;;;;;;;8.90;5.60;;;;;;;;;;5093193;28;20496;-71
2022/04/06 00:30:48;;;;;;;8.80;5.40;;;;;;;;;;5093084;28;20415;-72
2022/04/06 00:33:14;;;;;;;11.55;5.43;;;;;;;;;;5092199;28;20420;-73
2022/04/06 00:35:40;;;;;;;8.95;5.13;;;;;;;;;;5092730;28;20394;-72
2022/04/06 00:38:07;;;;;;;10.10;5.28;;;;;;;;;;5092497;28;20468;-72
2022/04/06 00:40:33;;;;;;;8.80;5.35;;;;;;;;;;5092585;28;20024;-77
2022/04/06 00:43:00;;;;;;;7.72;4.65;;;;;;;;;;5092492;28;20084;-71
2022/04/06 00:45:25;;;;;;;8.07;5.20;;;;;;;;;;5092240;28;20024;-74
2022/04/06 00:47:52;;;;;;;8.55;5.22;;;;;;;;;;5092315;28;20028;-76
2022/04/06 00:50:18;;;;;;;10.63;5.32;;;;;;;;;;5092318;28;20112;-76
2022/04/06 00:52:44;;;;;;;7.25;4.78;;;;;;;;;;5092349;28;20028;-72
2022/04/06 00:55:12;;;;;;;7.97;4.88;;;;;;;;;;5092583;28;20383;-76
2022/04/06 00:57:38;;;;;;;7.45;4.85;;;;;;;;;;5092360;28;20537;-74
2022/04/06 01:00:06;;;;;;;8.07;4.88;;;;;;;;;;5092302;28;20034;-72
2022/04/06 01:02:32;;;;;;;7.97;4.72;;;;;;;;;;5092053;28;20028;-71
2022/04/06 01:04:57;;;;;;;8.40;5.05;;;;;;;;;;5091666;28;20048;-71
2022/04/06 01:07:23;;;;;;;7.60;4.53;;;;;;;;;;5091990;28;20031;-73
2022/04/06 01:09:49;;;;;;;7.30;4.57;;;;;;;;;;5092196;28;20434;-72
2022/04/06 01:12:15;;;;;;;10.27;4.35;;;;;;;;;;5092234;28;20020;-71
2022/04/06 01:14:41;;;;;;;7.30;4.47;;;;;;;;;;5091772;28;20039;-72
2022/04/06 01:17:08;;;;;;;8.45;4.90;;;;;;;;;;5092001;28;20388;-76
2022/04/06 01:19:37;;;;;;;6.53;4.53;;;;;;;;;;5091654;28;20036;-71
2022/04/06 01:22:13;;;;;;;9.98;4.40;;;;;;;;;;5091657;28;20535;-72
2022/04/06 01:24:40;;;;;;;10.13;4.40;;;;;;;;;;5091564;28;20032;-72
2022/04/06 01:27:06;;;;;;;8.40;4.55;;;;;;;;;;5091794;28;20387;-71
2022/04/06 01:29:32;;;;;;;7.07;4.20;;;;;;;;;;5091728;28;20028;-76
2022/04/06 01:32:11;;;;;;;7.85;4.40;;;;;;;;;;5091649;28;20036;-75
2022/04/06 01:34:37;;;;;;;7.22;4.20;;;;;;;;;;5091390;28;20040;-70
2022/04/06 01:37:04;;;;;;;6.03;4.30;;;;;;;;;;5091630;28;20024;-71
2022/04/06 01:39:31;;;;;;;7.93;4.40;;;;;;;;;;5091017;28;20028;-71
2022/04/06 01:41:57;;;;;;;6.00;3.80;;;;;;;;;;5091295;28;20027;-74
2022/04/06 01:44:22;;;;;;;6.50;3.65;;;;;;;;;;5089928;28;20020;-77
2022/04/06 01:46:48;;;;;;;7.25;3.88;;;;;;;;;;5091460;28;20016;-71
2022/04/06 01:52:12;;;;;;;4.97;3.38;;;;;;;;;;5091305;28;20526;-76
2022/04/06 01:54:48;;;;;;;5.28;3.45;;;;;;;;;;5090808;28;20495;-74
2022/04/06 01:57:14;;;;;;;6.93;3.80;;;;;;;;;;5091048;28;20024;-74
2022/04/06 01:59:41;;;;;;;5.88;3.40;;;;;;;;;;5091049;28;20036;-72
2022/04/06 02:02:09;;;;;;;8.38;3.60;;;;;;;;;;5090984;28;20028;-74
2022/04/06 02:04:34;;;;;;;7.32;3.40;;;;;;;;;;5090761;28;20212;-71
2022/04/06 02:07:00;;;;;;;5.25;3.30;;;;;;;;;;5091029;28;20204;-75
2022/04/06 02:09:26;;;;;;;6.32;3.38;;;;;;;;;;5090937;28;20066;-76
2022/04/06 02:11:52;;;;;;;4.97;3.28;;;;;;;;;;5090930;28;20032;-71
2022/04/06 02:14:17;;;;;;;8.38;3.03;;;;;;;;;;5090685;28;20060;-71
2022/04/06 02:16:43;;;;;;;5.93;3.20;;;;;;;;;;5090683;28;20020;-72
2022/04/06 02:19:09;;;;;;;4.85;3.10;;;;;;;;;;5090525;28;20056;-71
2022/04/06 02:21:35;;;;;;;4.63;2.88;;;;;;;;;;5090786;28;20036;-73
2022/04/06 02:24:01;;;;;;;4.68;3.00;;;;;;;;;;5090689;28;20020;-71
2022/04/06 02:26:27;;;;;;;5.05;3.00;;;;;;;;;;5090419;28;20100;-74
2022/04/06 02:28:57;;;;;;;5.78;3.00;;;;;;;;;;5090727;28;20039;-71
2022/04/06 02:31:23;;;;;;;4.63;3.00;;;;;;;;;;5090753;28;20506;-73
2022/04/06 02:33:49;;;;;;;6.15;2.70;;;;;;;;;;5090581;28;20302;-76
2022/04/06 02:36:14;;;;;;;4.22;2.75;;;;;;;;;;5090194;28;20127;-71
2022/04/06 02:38:40;;;;;;;4.45;2.90;;;;;;;;;;5090292;28;20024;-73
2022/04/06 02:41:06;;;;;;;5.32;3.30;;;;;;;;;;5090431;28;20024;-73
2022/04/06 02:43:32;;;;;;;5.82;3.55;;;;;;;;;;5090384;28;20024;-71
2022/04/06 02:45:58;;;;;;;4.97;3.10;;;;;;;;;;5090378;28;20035;-71
2022/04/06 02:48:24;;;;;;;6.90;3.42;;;;;;;;;;5090652;28;20020;-72
2022/04/06 02:50:49;;;;;;;6.57;3.53;;;;;;;;;;5090257;28;20035;-74
2022/04/06 02:53:15;;;;;;;6.97;3.60;;;;;;;;;;5090061;28;20051;-75
2022/04/06 02:55:40;;;;;;;6.50;3.85;;;;;;;;;;5090147;28;20012;-72
2022/04/06 02:58:06;;;;;;;7.25;3.58;;;;;;;;;;5090160;28;20065;-71
2022/04/06 03:00:32;;;;;;;5.78;3.60;;;;;;;;;;5090366;28;20055;-71
2022/04/06 03:02:58;;;;;;;7.70;3.53;;;;;;;;;;5089933;28;20095;-74
2022/04/06 03:05:25;;;;;;;5.70;3.30;;;;;;;;;;5090135;28;20103;-76
2022/04/06 03:07:51;;;;;;;5.35;3.30;;;;;;;;;;5089969;28;20016;-75
2022/04/06 03:10:16;;;;;;;7.30;3.75;;;;;;;;;;5089951;28;20024;-76
2022/04/06 03:12:42;;;;;;;6.30;3.78;;;;;;;;;;5089961;28;20027;-73
2022/04/06 03:15:08;;;;;;;6.47;3.42;;;;;;;;;;5089713;28;20031;-71
2022/04/06 03:17:35;;;;;;;6.40;3.50;;;;;;;;;;5089859;28;20109;-73
2022/04/06 03:20:02;;;;;;;5.43;3.78;;;;;;;;;;5089916;28;20024;-73
2022/04/06 03:22:28;;;;;;;7.75;3.90;;;;;;;;;;5089969;28;20052;-72
2022/04/06 03:24:54;;;;;;;8.38;3.95;;;;;;;;;;5089567;28;20093;-74
2022/04/06 03:27:19;;;;;;;6.00;3.60;;;;;;;;;;5089760;28;20381;-73
2022/04/06 03:29:45;;;;;;;6.82;3.47;;;;;;;;;;5089892;28;20024;-74
2022/04/06 03:32:10;;;;;;;6.95;3.88;;;;;;;;;;5088254;28;20186;-71
2022/04/06 03:34:36;;;;;;;5.55;3.55;;;;;;;;;;5089585;28;20028;-72
2022/04/06 03:37:02;;;;;;;5.53;3.58;;;;;;;;;;5089597;28;20024;-72
2022/04/06 03:39:27;;;;;;;6.22;3.53;;;;;;;;;;5089806;28;20032;-75
2022/04/06 03:41:52;;;;;;;7.30;3.70;;;;;;;;;;5089932;28;20063;-73
2022/04/06 03:44:18;;;;;;;5.55;3.60;;;;;;;;;;5089539;28;20047;-77
2022/04/06 03:46:43;;;;;;;6.30;3.80;;;;;;;;;;5089407;28;20062;-69
2022/04/06 03:49:09;;;;;;;6.95;3.88;;;;;;;;;;5089365;28;20020;-70
2022/04/06 03:51:35;;;;;;;5.38;3.70;;;;;;;;;;5089530;28;20036;-76
2022/04/06 03:54:00;;;;;;;6.78;3.63;;;;;;;;;;5089395;28;20089;-71
2022/04/06 03:56:26;;;;;;;6.25;4.10;;;;;;;;;;5089518;28;20032;-71
2022/04/06 03:58:52;;;;;;;6.88;4.22;;;;;;;;;;5089916;28;20028;-72
2022/04/06 04:01:17;;;;;;;8.68;4.07;;;;;;;;;;5089903;28;20134;-70
2022/04/06 04:03:43;;;;;;;8.38;4.22;;;;;;;;;;5089481;28;20043;-74
2022/04/06 04:06:08;;;;;;;6.70;3.90;;;;;;;;;;5089511;28;20081;-70
2022/04/06 04:08:34;;;;;;;6.90;3.75;;;;;;;;;;5091832;28;20053;-70
2022/04/06 04:10:59;;;;;;;5.65;4.05;;;;;;;;;;5093179;28;20051;-74
2022/04/06 04:13:25;;;;;;;7.20;3.85;;;;;;;;;;5093305;28;20400;-75
2022/04/06 04:15:50;;;;;;;6.55;3.72;;;;;;;;;;5093551;28;20063;-72
2022/04/06 04:18:16;;;;;;;7.95;3.70;;;;;;;;;;5093381;28;20043;-71
2022/04/06 04:20:45;;;;;;;6.88;3.80;;;;;;;;;;5093157;28;20039;-72
2022/04/06 04:23:13;;;;;;;7.70;3.70;;;;;;;;;;5092818;28;20035;-74
2022/04/06 04:25:39;;;;;;;6.13;3.42;;;;;;;;;;5092771;28;20049;-72
2022/04/06 04:28:05;;;;;;;7.03;3.50;;;;;;;;;;5092877;28;20147;-70
2022/04/06 04:30:31;;;;;;;5.88;3.60;;;;;;;;;;5092813;28;20089;-74
2022/04/06 04:32:57;;;;;;;7.10;3.60;;;;;;;;;;5093134;28;20055;-76
2022/04/06 04:35:22;;;;;;;5.63;3.35;;;;;;;;;;5092695;28;20052;-70
2022/04/06 04:37:48;;;;;;;6.25;3.70;;;;;;;;;;5092654;28;20235;-72
2022/04/06 04:40:16;;;;;;;6.15;3.70;;;;;;;;;;5092751;28;20028;-73
2022/04/06 04:42:42;;;;;;;5.95;3.72;;;;;;;;;;5092819;28;20028;-75
2022/04/06 04:45:09;;;;;;;8.98;4.25;;;;;;;;;;5092235;28;20043;-74
2022/04/06 04:47:35;;;;;;;5.13;3.83;;;;;;;;;;5092539;28;20027;-69
2022/04/06 04:50:00;;;;;;;7.78;3.70;;;;;;;;;;5092455;28;20032;-71
2022/04/06 04:52:26;;;;;;;7.82;3.58;;;;;;;;;;5092481;28;20391;-73
2022/04/06 04:54:52;;;;;;;5.53;3.58;;;;;;;;;;5092739;28;20052;-73
2022/04/06 04:57:17;;;;;;;5.75;3.33;;;;;;;;;;5092310;28;20169;-74
2022/04/06 04:59:42;;;;;;;6.80;3.30;;;;;;;;;;5092252;28;20024;-77
2022/04/06 05:02:08;;;;;;;6.82;3.20;;;;;;;;;;5092205;28;20024;-72
2022/04/06 05:04:33;;;;;;;6.43;3.38;;;;;;;;;;5091852;28;20113;-71
2022/04/06 05:06:59;;;;;;;5.53;3.20;;;;;;;;;;5091948;28;20111;-70
2022/04/06 05:09:24;;;;;;;5.00;3.08;;;;;;;;;;5092031;28;20020;-71
2022/04/06 05:11:49;;;;;;;5.75;3.40;;;;;;;;;;5092196;28;20020;-74
2022/04/06 05:14:15;;;;;;;5.80;3.35;;;;;;;;;;5092032;28;20024;-72
2022/04/06 05:16:40;;;;;;;9.70;3.85;;;;;;;;;;5091623;28;20018;-72
2022/04/06 05:19:06;;;;;;;8.85;3.97;;;;;;;;;;5091677;28;20067;-73
2022/04/06 05:21:31;;;;;;;9.10;4.00;;;;;;;;;;5091584;28;20053;-70
2022/04/06 05:23:58;;;;;;;8.68;4.50;;;;;;;;;;5091512;28;20024;-76
2022/04/06 05:26:23;;;;;;;6.80;4.20;;;;;;;;;;5091375;28;20480;-73
2022/04/06 05:28:49;;;;;;;10.70;5.47;;;;;;;;;;5091880;28;20027;-70
2022/04/06 05:31:14;;;;;;;10.98;4.53;;;;;;;;;;5091673;28;20024;-76
2022/04/06 05:33:40;;;;;;;7.20;4.00;;;;;;;;;;5091672;28;20029;-70
2022/04/06 05:36:06;;;;;;;8.07;3.97;;;;;;;;;;5091399;28;20044;-75
2022/04/06 05:38:34;;;;;;;8.13;3.83;;;;;;;;;;5091229;28;20020;-69
2022/04/06 05:41:01;;;;;;;6.88;3.90;;;;;;;;;;5091590;28;20082;-73
2022/04/06 05:43:26;;;;;;;9.48;4.32;;;;;;;;;;5091288;28;20082;-70
2022/04/06 05:45:52;;;;;;;11.45;4.22;;;;;;;;;;5091127;28;20020;-77
2022/04/06 05:48:17;;;;;;;11.38;3.70;;;;;;;;;;5091455;28;20103;-76
2022/04/06 05:50:43;;;;;;;8.77;3.70;;;;;;;;;;5091320;28;20115;-71
2022/04/06 05:53:08;;;;;;;11.10;3.60;;;;;;;;;;5091339;28;20103;-72
2022/04/06 05:55:33;;;;;;;8.20;3.50;;;;;;;;;;5091176;28;20414;-72
2022/04/06 05:57:59;;;;;;;12.20;3.70;;;;;;;;;;5091060;28;20497;-76
2022/04/06 06:00:24;;;;;;;9.25;3.80;;;;;;;;;;5094063;28;20016;-76
2022/04/06 06:02:51;;;;;;;7.22;3.75;;;;;;;;;;5090033;28;20429;-71
2022/04/06 06:05:16;;;;;;;7.35;3.55;;;;;;;;;;5090909;28;20050;-76
2022/04/06 06:07:42;;;;;;;8.60;3.70;;;;;;;;;;5090830;28;20234;-71
2022/04/06 06:10:08;;;;;;;7.30;3.83;;;;;;;;;;5091064;28;20379;-76
2022/04/06 06:12:33;;;;;;;8.65;3.85;;;;;;;;;;5090706;28;20020;-72
2022/04/06 06:15:00;;;;;;;8.63;3.72;;;;;;;;;;5090691;28;20032;-74
2022/04/06 06:17:25;;;;;;;9.25;3.92;;;;;;;;;;5090492;28;20081;-72
2022/04/06 06:19:51;;;;;;;9.10;3.60;;;;;;;;;;5090697;28;20023;-70
2022/04/06 06:22:17;;;;;;;9.15;4.00;;;;;;;;;;5090924;28;20333;-71
2022/04/06 06:24:42;;;;;;;9.35;4.22;;;;;;;;;;5090934;28;20028;-70
2022/04/06 06:27:08;;;;;;;10.52;4.35;;;;;;;;;;5090657;28;20099;-74
2022/04/06 06:29:33;;;;;;;9.77;4.63;;;;;;;;;;5090592;28;20027;-71
2022/04/06 06:31:59;;;;;;;10.50;4.72;;;;;;;;;;5089962;28;20036;-74
2022/04/06 06:34:24;;;;;;;9.63;4.75;;;;;;;;;;5090751;28;20047;-72
2022/04/06 06:36:50;;;;;;;10.38;4.32;;;;;;;;;;5090218;28;20536;-71
2022/04/06 06:39:16;;;;;;;10.05;4.35;;;;;;;;;;5090131;28;20024;-75
2022/04/06 06:41:42;;;;;;;8.60;4.40;;;;;;;;;;5090753;28;20028;-76
2022/04/06 06:44:08;;;;;;;12.23;4.50;;;;;;;;;;5090429;28;20453;-74
2022/04/06 06:46:33;;;;;;;9.43;4.43;;;;;;;;;;5090312;28;20024;-73
2022/04/06 06:49:08;;;;;;;15.25;4.65;;;;;;;;;;5090212;28;20034;-71
2022/04/06 06:51:34;;;;;;;7.57;4.05;;;;;;;;;;5090364;28;20537;-74
2022/04/06 06:54:00;;;;;;;10.15;4.32;;;;;;;;;;5089930;28;20262;-74
2022/04/06 06:56:26;;;;;;;9.60;4.53;;;;;;;;;;5090062;28;20035;-72
2022/04/06 06:58:51;;;;;;;9.70;4.13;;;;;;;;;;5090249;28;20032;-75
2022/04/06 07:01:17;;;;;;;10.77;4.10;;;;;;;;;;5090720;28;20105;-71
2022/04/06 07:03:42;;;;;;;10.32;4.18;;;;;;;;;;5089921;28;20080;-76
2022/04/06 07:06:08;;;;;;;8.98;4.32;;;;;;;;;;5090068;28;20067;-75
2022/04/06 07:08:33;;;;;;;13.05;5.03;;;;;;;;;;5090133;28;20107;-71
2022/04/06 07:10:59;;;;;;;9.77;4.20;;;;;;;;;;5090142;28;20442;-72
2022/04/06 07:13:25;;;;;;;10.43;4.78;;;;;;;;;;5090280;28;20028;-72
2022/04/06 07:15:51;;;;;;;10.30;4.03;;;;;;;;;;5088690;28;20030;-71
2022/04/06 07:18:18;;;;;;;10.48;4.40;;;;;;;;;;5089715;28;20403;-75
2022/04/06 07:20:44;;;;;;;13.45;4.60;;;;;;;;;;5090206;28;20081;-72
2022/04/06 07:23:10;;;;;;;11.32;4.68;;;;;;;;;;5089884;28;20392;-72
2022/04/06 07:25:36;;;;;;;10.38;4.80;;;;;;;;;;5089802;28;20016;-75
2022/04/06 07:28:02;;;;;;;10.15;4.80;;;;;;;;;;5089568;28;20028;-75
2022/04/06 07:30:29;;;;;;;11.07;4.75;;;;;;;;;;5089696;28;20058;-72
2022/04/06 07:32:56;;;;;;;13.50;5.00;;;;;;;;;;5089793;28;20024;-75
2022/04/06 07:35:21;;;;;;;9.43;4.30;;;;;;;;;;5090027;28;20449;-73
2022/04/06 07:37:48;;;;;;;9.18;4.25;;;;;;;;;;5089589;28;20548;-71
2022/04/06 07:40:15;;;;;;;12.95;4.47;;;;;;;;;;5089919;28;20023;-74
2022/04/06 07:42:41;;;;;;;7.78;4.07;;;;;;;;;;5090770;28;20034;-70
2022/04/06 07:45:13;;;;;;;8.82;4.25;;;;;;;;;;5093526;28;20043;-70
2022/04/06 07:47:40;;;;;;;11.02;4.05;;;;;;;;;;5093460;28;20179;-74
2022/04/06 07:50:07;;;;;;;8.35;4.07;;;;;;;;;;5093565;28;20034;-73
2022/04/06 07:52:33;;;;;;;12.20;4.40;;;;;;;;;;5093384;28;20395;-71
2022/04/06 07:54:59;;;;;;;12.20;4.82;;;;;;;;;;5093572;28;20024;-73
2022/04/06 07:57:25;;;;;;;8.55;4.20;;;;;;;;;;5093443;28;20020;-77
2022/04/06 07:59:55;;;;;;;12.52;5.38;;;;;;;;;;5093398;28;20039;-70
2022/04/06 08:02:21;;;;;;;12.00;4.97;;;;;;;;;;5092052;28;20028;-74
2022/04/06 08:04:47;;;;;;;13.77;4.40;;;;;;;;;;5092866;28;20115;-73
2022/04/06 08:07:12;;;;;;;8.57;3.88;;;;;;;;;;5092935;28;20028;-73
2022/04/06 08:09:38;;;;;;;9.15;4.10;;;;;;;;;;5093400;28;20036;-73
2022/04/06 08:12:04;;;;;;;6.15;3.00;;;;;;;;;;5093194;28;20032;-73
2022/04/06 08:14:30;;;;;;;12.13;3.28;;;;;;;;;;5093259;28;20028;-71
2022/04/06 08:16:56;;;;;;;4.47;2.75;;;;;;;;;;5092833;28;20119;-72
2022/04/06 08:19:23;;;;;;;4.30;2.70;;;;;;;;;;5092769;28;20032;-71
2022/04/06 08:21:50;;;;;;;5.07;2.60;;;;;;;;;;5092784;28;20040;-71
2022/04/06 08:24:16;;;;;;;6.88;3.00;;;;;;;;;;5092595;28;20495;-74
2022/04/06 08:26:41;;;;;;;9.57;2.95;;;;;;;;;;5092513;28;20024;-71
2022/04/06 08:29:07;;;;;;;5.18;2.30;;;;;;;;;;5092838;28;20020;-71
2022/04/06 08:31:33;;;;;;;5.15;2.67;;;;;;;;;;5093215;28;20047;-72
2022/04/06 08:33:58;;;;;;;4.93;2.50;;;;;;;;;;5093336;28;20028;-72
2022/04/06 08:36:23;;;;;;;4.88;2.45;;;;;;;;;;5092939;28;20028;-75
2022/04/06 08:38:49;;;;;;;5.35;2.42;;;;;;;;;;5091448;28;20024;-70
2022/04/06 08:41:16;;;;;;;6.10;2.90;;;;;;;;;;5092660;28;20050;-71
2022/04/06 08:43:42;;;;;;;5.50;2.50;;;;;;;;;;5092360;28;20120;-74
2022/04/06 08:46:10;;;;;;;6.47;2.50;;;;;;;;;;5092523;28;20131;-71
2022/04/06 08:48:36;;;;;;;4.55;2.60;;;;;;;;;;5093054;28;20032;-75
2022/04/06 08:51:05;;;;;;;4.25;2.63;;;;;;;;;;5093146;28;20020;-74
2022/04/06 08:53:31;;;;;;;5.60;2.42;;;;;;;;;;5091751;28;20209;-71
2022/04/06 08:55:57;;;;;;;4.05;2.47;;;;;;;;;;5092842;28;20198;-71
2022/04/06 08:58:22;;;;;;;3.85;2.60;;;;;;;;;;5091968;28;20058;-70
2022/04/06 09:00:48;;;;;;;6.60;2.70;;;;;;;;;;5092085;28;20028;-71
2022/04/06 09:03:14;;;;;;;7.18;3.28;;;;;;;;;;5092084;28;20012;-73
2022/04/06 09:05:40;;;;;;;3.72;2.40;;;;;;;;;;5092237;28;20028;-70
2022/04/06 09:08:05;;;;;;;6.53;2.60;;;;;;;;;;5091848;28;20373;-70
2022/04/06 09:10:36;;;;;;;5.90;2.90;;;;;;;;;;5091988;28;20026;-72
2022/04/06 09:13:15;;;;;;;7.25;3.40;;;;;;;;;;5092183;28;20090;-71
2022/04/06 09:15:44;;;;;;;5.07;3.30;;;;;;;;;;5091950;28;20048;-72
2022/04/06 09:18:10;;;;;;;7.43;3.85;;;;;;;;;;5091671;28;20024;-74
2022/04/06 09:20:35;;;;;;;6.93;3.15;;;;;;;;;;5091739;28;20518;-72
2022/04/06 09:23:03;;;;;;;7.18;3.45;;;;;;;;;;5091520;28;20470;-72
2022/04/06 09:25:42;;;;;;;7.15;3.50;;;;;;;;;;5091898;28;20064;-74
2022/04/06 09:28:14;;;;;;;6.55;3.28;;;;;;;;;;5091573;28;20065;-71
2022/04/06 09:30:45;;;;;;;8.60;3.70;;;;;;;;;;5091944;28;20529;-71
2022/04/06 09:33:21;;;;;;;7.75;3.70;;;;;;;;;;5091655;28;20541;-74
2022/04/06 09:35:47;;;;;;;5.45;3.35;;;;;;;;;;5091505;28;20384;-73
2022/04/06 09:38:25;;;;;;;6.07;3.50;;;;;;;;;;5091163;28;20285;-70
2022/04/06 09:41:06;;;;;;;4.97;3.28;;;;;;;;;;5091249;28;20027;-70
2022/04/06 09:43:35;;;;;;;;;;;;;;;;;;5091918;28;20110;-72
2022/04/06 09:49:08;;;;;;;7.97;3.10;;;;;;;;;;5091453;28;20066;-70
2022/04/06 09:51:33;;;;;;;6.65;3.40;;;;;;;;;;5091110;28;20039;-73
2022/04/06 09:54:02;;;;;;;5.57;3.20;;;;;;;;;;5090908;28;20024;-74
2022/04/06 09:56:30;;;;;;;7.68;3.45;;;;;;;;;;5090986;28;20490;-71
2022/04/06 09:58:57;;;;;;;6.22;2.95;;;;;;;;;;5090744;28;20046;-71
2022/04/06 10:01:24;;;;;;;5.82;3.17;;;;;;;;;;5090913;28;20032;-72
2022/04/06 10:03:54;;;;;;;5.63;3.58;;;;;;;;;;5091085;28;20039;-71
2022/04/06 10:06:20;;;;;;;5.03;3.20;;;;;;;;;;5090176;28;20062;-70
2022/04/06 10:08:45;;;;;;;7.63;3.45;;;;;;;;;;5090641;28;20067;-73
2022/04/06 10:11:12;;;;;;;6.68;3.20;;;;;;;;;;5090872;28;20096;-71
2022/04/06 10:13:40;;;;;;;7.78;3.28;;;;;;;;;;5090600;28;20044;-71
2022/04/06 10:16:10;;;;;;;5.93;3.33;;;;;;;;;;5090784;28;20409;-71
2022/04/06 10:18:36;;;;;;;5.35;2.90;;;;;;;;;;5090592;28;20031;-69
2022/04/06 10:21:11;;;;;;;6.72;3.17;;;;;;;;;;5090781;28;20044;-70
2022/04/06 10:24:14;;;;;;;7.75;3.13;;;;;;;;;;5091075;28;20024;-71
2022/04/06 10:26:59;;;;;;;5.93;3.05;;;;;;;;;;5090750;28;20020;-73
2022/04/06 10:29:25;;;;;;;4.82;3.08;;;;;;;;;;5090795;28;20020;-74
2022/04/06 10:31:50;;;;;;;4.57;2.97;;;;;;;;;;5090253;28;20024;-73
2022/04/06 10:34:33;;;;;;;5.88;2.88;;;;;;;;;;5088981;28;20115;-72
2022/04/06 10:37:05;;;;;;;5.82;2.97;;;;;;;;;;5090618;28;20020;-74
2022/04/06 10:39:32;;;;;;;5.55;3.28;;;;;;;;;;5089942;28;20028;-71
2022/04/06 10:42:13;;;;;;;6.03;3.40;;;;;;;;;;5090916;28;20027;-71
2022/04/06 10:44:39;;;;;;;8.73;3.40;;;;;;;;;;5090337;28;20122;-73
2022/04/06 10:47:10;;;;;;;6.93;2.92;;;;;;;;;;5090224;28;20046;-71
2022/04/06 10:49:36;;;;;;;6.60;3.10;;;;;;;;;;5090409;28;20016;-69
2022/04/06 10:52:18;;;;;;;4.95;3.22;;;;;;;;;;5090109;28;20365;-74
2022/04/06 10:54:44;;;;;;;6.15;3.10;;;;;;;;;;5089955;28;20387;-73
2022/04/06 10:57:09;;;;;;;4.95;3.00;;;;;;;;;;5090144;28;20099;-73
2022/04/06 10:59:35;;;;;;;7.10;2.97;;;;;;;;;;5090156;28;20081;-71
2022/04/06 11:02:28;;;;;;;6.47;2.95;;;;;;;;;;5090283;28;20415;-71
2022/04/06 11:04:54;;;;;;;5.97;2.88;;;;;;;;;;5088899;28;20048;-71
2022/04/06 11:10:30;;;;;;;5.53;3.08;;;;;;;;;;5089961;28;20035;-73
2022/04/06 11:13:03;;;;;;;6.07;3.08;;;;;;;;;;5089940;28;20027;-71
2022/04/06 11:15:40;;;;;;;5.97;2.70;;;;;;;;;;5089841;28;20032;-71
2022/04/06 11:18:47;;;;;;;5.45;2.97;;;;;;;;;;5093366;28;20353;-71
2022/04/06 11:21:14;;;;;;;6.28;3.03;;;;;;;;;;5094251;28;20403;-72
2022/04/06 11:23:40;;;;;;;7.10;3.15;;;;;;;;;;5093883;28;20058;-70
2022/04/06 11:26:06;;;;;;;5.75;3.00;;;;;;;;;;5093910;28;20027;-71
2022/04/06 11:28:31;;;;;;;5.43;2.95;;;;;;;;;;5093741;28;20024;-72
2022/04/06 11:31:02;;;;;;;5.05;2.80;;;;;;;;;;5094380;28;20545;-74
2022/04/06 11:33:38;;;;;;;8.55;2.70;;;;;;;;;;5094196;28;20028;-70
2022/04/06 11:36:14;;;;;;;4.05;2.60;;;;;;;;;;5094163;28;20028;-75
2022/04/06 11:38:40;;;;;;;6.05;2.78;;;;;;;;;;5093458;28;20074;-73
2022/04/06 11:41:05;;;;;;;5.70;2.78;;;;;;;;;;5093892;28;20207;-72
2022/04/06 11:43:31;;;;;;;5.68;2.90;;;;;;;;;;5093510;28;20055;-71
2022/04/06 11:45:59;;;;;;;4.40;2.78;;;;;;;;;;5093856;28;20115;-73
2022/04/06 11:48:38;;;;;;;5.10;2.45;;;;;;;;;;5093316;28;20030;-74
2022/04/06 11:51:03;;;;;;;5.10;2.80;;;;;;;;;;5094111;28;20020;-71
2022/04/06 11:53:30;;;;;;;6.38;2.55;;;;;;;;;;5093522;28;20084;-71
2022/04/06 11:55:55;;;;;;;9.38;2.80;;;;;;;;;;5093460;28;20119;-71
2022/04/06 11:58:38;;;;;;;5.90;2.90;;;;;;;;;;5093206;28;20542;-71
2022/04/06 12:01:27;;;;;;;3.78;2.25;;;;;;;;;;5093266;28;20024;-71
2022/04/06 12:03:53;;;;;;;4.55;2.58;;;;;;;;;;5093185;28;20080;-71
2022/04/06 12:06:19;;;;;;;4.95;2.67;;;;;;;;;;5093334;28;20136;-71
2022/04/06 12:08:46;;;;;;;5.20;2.70;;;;;;;;;;5093111;28;20023;-71
2022/04/06 12:11:11;;;;;;;5.88;2.85;;;;;;;;;;5093322;28;20531;-73
2022/04/06 12:13:40;;;;;;;5.55;2.90;;;;;;;;;;5092975;28;20155;-74
2022/04/06 12:16:06;;;;;;;5.63;2.78;;;;;;;;;;5092900;28;20066;-71
2022/04/06 12:18:33;;;;;;;8.23;2.85;;;;;;;;;;5092658;28;20028;-71
2022/04/06 12:20:59;;;;;;;6.22;2.50;;;;;;;;;;5093141;28;20515;-71
2022/04/06 12:23:26;;;;;;;5.07;2.53;;;;;;;;;;5092823;28;20056;-71
2022/04/06 12:25:52;;;;;;;5.43;2.60;;;;;;;;;;5093364;28;20028;-71
2022/04/06 12:28:23;;;;;;;3.75;2.58;;;;;;;;;;5091754;28;20498;-71
2022/04/06 12:31:07;;;;;;;;;;;;;;;;;;5093311;28;20103;-70
2022/04/06 12:33:50;;;;;;;7.00;2.35;;;;;;;;;;5092743;28;20064;-76
2022/04/06 12:36:24;;;;;;;5.93;2.17;;;;;;;;;;5092645;28;20024;-73
2022/04/06 12:38:57;;;;;;;6.03;2.42;;;;;;;;;;5092138;28;20032;-71
2022/04/06 12:41:23;;;;;;;3.63;2.22;;;;;;;;;;5092553;28;20072;-72
2022/04/06 12:43:49;;;;;;;4.68;2.80;;;;;;;;;;5092663;28;20024;-70
2022/04/06 12:46:44;;;;;;;6.45;2.60;;;;;;;;;;5092559;28;20034;-72
2022/04/06 12:49:41;;;;;;;4.95;2.78;;;;;;;;;;5092379;28;20034;-71
2022/04/06 12:52:20;;;;;;;5.15;2.45;;;;;;;;;;5092554;28;20028;-73
2022/04/06 12:54:47;;;;;;;3.17;2.10;;;;;;;;;;5092307;28;20032;-73
2022/04/06 12:57:27;;;;;;;5.05;2.47;;;;;;;;;;5092369;28;20020;-70
2022/04/06 12:59:53;;;;;;;4.28;2.40;;;;;;;;;;5092046;28;20023;-71
2022/04/06 13:02:23;;;;;;;5.43;2.60;;;;;;;;;;5092041;28;20085;-72
2022/04/06 13:04:50;;;;;;;4.00;2.40;;;;;;;;;;5091854;28;20507;-71
2022/04/06 13:07:16;;;;;;;6.85;2.40;;;;;;;;;;5092047;28;20035;-73
2022/04/06 13:09:58;;;;;;;4.85;2.40;;;;;;;;;;5091626;28;20083;-72
2022/04/06 13:12:29;;;;;;;4.25;1.98;;;;;;;;;;5092094;28;20380;-73
2022/04/06 13:14:56;;;;;;;3.10;2.20;;;;;;;;;;5092254;28;20494;-72
2022/04/06 13:17:22;;;;;;;3.03;1.90;;;;;;;;;;5092034;28;20090;-74
2022/04/06 13:19:49;;;;;;;4.00;1.95;;;;;;;;;;5091741;28;20280;-71
2022/04/06 13:22:15;;;;;;;5.13;2.05;;;;;;;;;;5092004;28;20024;-71
2022/04/06 13:24:41;;;;;;;3.92;2.03;;;;;;;;;;5092091;28;20024;-73
2022/04/06 13:27:07;;;;;;;3.38;1.92;;;;;;;;;;5091778;28;20099;-71
2022/04/06 13:29:33;;;;;;;2.92;1.80;;;;;;;;;;5091648;28;20111;-70
2022/04/06 13:32:00;;;;;;;3.05;1.60;;;;;;;;;;5091764;28;20027;-70
2022/04/06 13:34:25;;;;;;;3.65;1.95;;;;;;;;;;5091976;28;20115;-70
2022/04/06 13:36:51;;;;;;;3.35;1.70;;;;;;;;;;5090368;28;20391;-69
2022/04/06 13:39:17;;;;;;;3.05;2.10;;;;;;;;;;5091566;28;20058;-69
2022/04/06 13:41:42;;;;;;;4.25;2.60;;;;;;;;;;5091472;28;20058;-70
2022/04/06 13:44:09;;;;;;;17.33;8.40;;;;;;;;;;5091266;28;20032;-70
2022/04/06 13:46:34;;;;;;;5.60;2.30;;;;;;;;;;5089963;28;20028;-75
2022/04/06 13:49:00;;;;;;;8.32;2.17;;;;;;;;;;5091054;28;20035;-71
2022/04/06 13:51:26;;;;;;;3.47;1.85;;;;;;;;;;5091128;28;20076;-72
2022/04/06 13:53:52;;;;;;;5.15;2.22;;;;;;;;;;5091091;28;20409;-72
2022/04/06 13:56:18;;;;;;;8.57;2.67;;;;;;;;;;5091223;28;20028;-74
2022/04/06 13:58:43;;;;;;;4.72;2.33;;;;;;;;;;5091126;28;20028;-71
2022/04/06 14:01:09;;;;;;;21.45;3.45;;;;;;;;;;5090926;28;20480;-70
2022/04/06 14:03:34;;;;;;;7.10;2.28;;;;;;;;;;5090672;28;20052;-70
2022/04/06 14:06:00;;;;;;;4.95;2.13;;;;;;;;;;5090931;28;20024;-70
2022/04/06 14:08:30;;;;;;;4.57;2.40;;;;;;;;;;5090702;28;20020;-70
2022/04/06 14:10:56;;;;;;;4.13;2.45;;;;;;;;;;5090902;28;20043;-71
2022/04/06 14:13:21;;;;;;;4.80;2.08;;;;;;;;;;5091022;28;20047;-71
2022/04/06 14:15:48;;;;;;;5.25;2.33;;;;;;;;;;5090753;28;20020;-74
2022/04/06 14:18:14;;;;;;;3.92;1.90;;;;;;;;;;5089436;28;20028;-74
2022/04/06 14:20:39;;;;;;;5.82;2.35;;;;;;;;;;5090848;28;20020;-71
2022/04/06 14:23:05;;;;;;;4.82;1.90;;;;;;;;;;5090497;28;20073;-70
2022/04/06 14:25:31;;;;;;;3.53;1.80;;;;;;;;;;5090902;28;20105;-71
2022/04/06 14:27:57;;;;;;;8.27;2.00;;;;;;;;;;5090685;28;20024;-71
2022/04/06 14:30:24;;;;;;;3.05;2.00;;;;;;;;;;5090542;28;20055;-72
2022/04/06 14:32:50;;;;;;;4.65;2.13;;;;;;;;;;5090657;28;20020;-71
2022/04/06 14:35:17;;;;;;;3.28;2.03;;;;;;;;;;5090333;28;20105;-70
2022/04/06 14:37:43;;;;;;;4.03;2.03;;;;;;;;;;5090170;28;20035;-74
2022/04/06 14:40:09;;;;;;;6.88;2.03;;;;;;;;;;5090001;28;20032;-71
2022/04/06 14:42:35;;;;;;;6.32;2.28;;;;;;;;;;5090503;28;20016;-73
2022/04/06 14:45:03;;;;;;;3.40;2.00;;;;;;;;;;5090475;28;20016;-75
2022/04/06 14:47:28;;;;;;;3.60;2.17;;;;;;;;;;5090231;28;20112;-70
2022/04/06 14:49:54;;;;;;;4.00;2.15;;;;;;;;;;5090222;28;20577;-72
2022/04/06 14:52:20;;;;;;;7.00;2.35;;;;;;;;;;5089599;28;20024;-74